Time;durP1;ratioP1;P1;durP2;ratioP2;P2;SDS_P1;SDS_P2;PMS_P1;PMS_P2;Temp;Humidity;BMP_temperature;BMP_pressure;BME280_temperature;BME280_humidity;BME280_pressure;Samples;Min_cycle;Max_cycle;Signal;HPM_P1;HPM_P2
2023/02/17 00:02:08;;;;;;;11.23;10.03;;;;;;;;;;5084051;28;20270;-51
2023/02/17 00:04:34;;;;;;;11.33;10.10;;;;;;;;;;5086561;28;20291;-49
2023/02/17 00:07:00;;;;;;;10.83;9.53;;;;;;;;;;5075305;28;20537;-50
2023/02/17 00:09:26;;;;;;;11.43;9.80;;;;;;;;;;5090924;28;20215;-51
2023/02/17 00:11:52;;;;;;;11.60;8.60;;;;;;;;;;5080681;28;20183;-51
2023/02/17 00:14:18;;;;;;;10.40;9.30;;;;;;;;;;5081592;28;20168;-49
2023/02/17 00:16:44;;;;;;;9.70;8.70;;;;;;;;;;5085023;28;20232;-50
2023/02/17 00:19:23;;;;;;;11.93;9.80;;;;;;;;;;5091556;28;20210;-51
2023/02/17 00:21:50;;;;;;;9.87;8.87;;;;;;;;;;5077933;28;20188;-49
2023/02/17 00:24:16;;;;;;;9.17;8.27;;;;;;;;;;5075853;28;20275;-52
2023/02/17 00:26:43;;;;;;;9.57;8.57;;;;;;;;;;5072984;28;20188;-49
2023/02/17 00:29:09;;;;;;;9.23;8.30;;;;;;;;;;5078522;28;20663;-50
2023/02/17 00:31:35;;;;;;;9.13;7.50;;;;;;;;;;5086305;28;20194;-50
2023/02/17 00:34:01;;;;;;;9.67;8.67;;;;;;;;;;5082579;28;20180;-49
2023/02/17 00:36:27;;;;;;;8.57;7.63;;;;;;;;;;5079277;28;20579;-50
2023/02/17 00:38:54;;;;;;;8.70;7.80;;;;;;;;;;5080381;28;20188;-50
2023/02/17 00:41:20;;;;;;;9.73;8.00;;;;;;;;;;5079873;28;20208;-50
2023/02/17 00:43:46;;;;;;;8.70;7.80;;;;;;;;;;5075766;28;20647;-50
2023/02/17 00:46:13;;;;;;;8.13;7.33;;;;;;;;;;5079292;28;20199;-51
2023/02/17 00:48:39;;;;;;;8.97;7.20;;;;;;;;;;5084706;28;20218;-49
2023/02/17 00:51:05;;;;;;;9.00;7.53;;;;;;;;;;5089416;28;20172;-50
2023/02/17 00:53:31;;;;;;;8.80;7.90;;;;;;;;;;5076814;28;20187;-50
2023/02/17 00:55:57;;;;;;;8.97;7.63;;;;;;;;;;5072321;28;20204;-50
2023/02/17 00:58:23;;;;;;;9.03;7.40;;;;;;;;;;5087564;28;20245;-51
2023/02/17 01:00:49;;;;;;;9.13;8.10;;;;;;;;;;5088568;28;20203;-51
2023/02/17 01:03:17;;;;;;;10.17;7.47;;;;;;;;;;5076012;28;20214;-50
2023/02/17 01:05:44;;;;;;;8.70;7.80;;;;;;;;;;5075755;28;20270;-50
2023/02/17 01:08:10;;;;;;;8.73;7.53;;;;;;;;;;5082561;28;20184;-51
2023/02/17 01:10:37;;;;;;;8.20;7.33;;;;;;;;;;5074580;28;20306;-50
2023/02/17 01:13:04;;;;;;;8.97;8.07;;;;;;;;;;5082026;28;20180;-49
2023/02/17 01:15:31;;;;;;;10.37;7.90;;;;;;;;;;5083474;28;20184;-50
2023/02/17 01:17:57;;;;;;;8.43;7.63;;;;;;;;;;5080710;28;21186;-50
2023/02/17 01:20:23;;;;;;;8.73;7.83;;;;;;;;;;5073441;28;20666;-50
2023/02/17 01:22:49;;;;;;;9.50;7.30;;;;;;;;;;5088207;28;20183;-50
2023/02/17 01:25:15;;;;;;;9.60;7.60;;;;;;;;;;5075076;28;20532;-50
2023/02/17 01:27:41;;;;;;;9.53;7.67;;;;;;;;;;5082908;28;20184;-49
2023/02/17 01:30:08;;;;;;;9.63;7.67;;;;;;;;;;5074042;28;20738;-50
2023/02/17 01:32:34;;;;;;;9.07;7.50;;;;;;;;;;5088311;28;20198;-49
2023/02/17 01:35:00;;;;;;;8.60;7.67;;;;;;;;;;5084943;28;20590;-49
2023/02/17 01:37:26;;;;;;;7.93;7.13;;;;;;;;;;5088825;28;20214;-49
2023/02/17 01:39:52;;;;;;;13.03;8.40;;;;;;;;;;5081379;28;20207;-49
2023/02/17 01:42:19;;;;;;;11.37;7.97;;;;;;;;;;5089655;28;20184;-54
2023/02/17 01:45:04;;;;;;;7.00;6.30;;;;;;;;;;5083589;28;20195;-49
2023/02/17 01:47:30;;;;;;;7.83;7.13;;;;;;;;;;5081498;28;20665;-49
2023/02/17 01:49:56;;;;;;;8.70;7.63;;;;;;;;;;5074894;28;20195;-50
2023/02/17 01:52:27;;;;;;;10.00;7.07;;;;;;;;;;5088228;28;20522;-50
2023/02/17 01:54:56;;;;;;;9.30;7.63;;;;;;;;;;5080020;28;20547;-49
2023/02/17 01:57:24;;;;;;;9.93;8.07;;;;;;;;;;5083646;28;20221;-50
2023/02/17 01:59:50;;;;;;;8.63;7.83;;;;;;;;;;5081587;28;20187;-49
2023/02/17 02:02:17;;;;;;;9.50;7.53;;;;;;;;;;5086049;28;20215;-50
2023/02/17 02:04:45;;;;;;;8.83;7.27;;;;;;;;;;5085393;28;20631;-51
2023/02/17 02:07:13;;;;;;;10.33;8.17;;;;;;;;;;5074020;28;20195;-49
2023/02/17 02:09:42;;;;;;;8.00;7.27;;;;;;;;;;5075807;28;20252;-50
2023/02/17 02:12:16;;;;;;;9.07;7.90;;;;;;;;;;5080669;28;20577;-49
2023/02/17 02:14:42;;;;;;;8.37;7.37;;;;;;;;;;5072277;28;20180;-50
2023/02/17 02:17:26;;;;;;;8.13;7.30;;;;;;;;;;5080842;28;20220;-51
2023/02/17 02:20:29;;;;;;;8.10;7.27;;;;;;;;;;5074998;28;20180;-50
2023/02/17 02:23:14;;;;;;;15.57;7.27;;;;;;;;;;5083245;28;20609;-50
2023/02/17 02:25:58;;;;;;;8.07;7.27;;;;;;;;;;5081339;28;20171;-50
2023/02/17 02:28:34;;;;;;;7.37;6.67;;;;;;;;;;5076764;28;20200;-50
2023/02/17 02:31:18;;;;;;;7.53;6.83;;;;;;;;;;5075815;28;20175;-51
2023/02/17 02:33:49;;;;;;;9.37;7.53;;;;;;;;;;5087137;28;20188;-51
2023/02/17 02:36:26;;;;;;;8.03;6.13;;;;;;;;;;5073614;28;20177;-50
2023/02/17 02:38:57;;;;;;;9.50;7.13;;;;;;;;;;5081437;28;20192;-50
2023/02/17 02:41:26;;;;;;;7.73;6.93;;;;;;;;;;5084000;28;20885;-50
2023/02/17 02:43:52;;;;;;;8.30;7.50;;;;;;;;;;5085455;28;20643;-51
2023/02/17 02:46:19;;;;;;;7.93;6.87;;;;;;;;;;5073795;28;20184;-51
2023/02/17 02:48:45;;;;;;;9.00;7.43;;;;;;;;;;5083560;28;20727;-50
2023/02/17 02:51:26;;;;;;;8.27;7.47;;;;;;;;;;5078287;28;20683;-50
2023/02/17 02:53:56;;;;;;;8.03;7.20;;;;;;;;;;5081454;28;20575;-51
2023/02/17 02:56:22;;;;;;;7.83;7.10;;;;;;;;;;5082037;28;20199;-51
2023/02/17 02:58:48;;;;;;;8.23;7.20;;;;;;;;;;5073376;28;20184;-51
2023/02/17 03:01:30;;;;;;;7.30;6.60;;;;;;;;;;5070968;28;20180;-50
2023/02/17 03:03:59;;;;;;;8.30;6.97;;;;;;;;;;5076547;28;20177;-50
2023/02/17 03:06:28;;;;;;;7.33;6.63;;;;;;;;;;5074595;28;20215;-49
2023/02/17 03:09:15;;;;;;;8.43;7.63;;;;;;;;;;5082341;28;20199;-52
2023/02/17 03:11:41;;;;;;;8.17;7.37;;;;;;;;;;5062830;28;20553;-49
2023/02/17 03:14:09;;;;;;;7.57;6.87;;;;;;;;;;5085375;28;20760;-49
2023/02/17 03:16:36;;;;;;;7.67;6.97;;;;;;;;;;5086503;28;20239;-50
2023/02/17 03:19:02;;;;;;;7.10;6.20;;;;;;;;;;5090668;28;20180;-50
2023/02/17 03:21:34;;;;;;;9.53;6.67;;;;;;;;;;5083175;28;20183;-50
2023/02/17 03:24:00;;;;;;;7.37;6.67;;;;;;;;;;5084615;28;20184;-50
2023/02/17 03:26:26;;;;;;;7.30;6.60;;;;;;;;;;5080323;28;20195;-51
2023/02/17 03:28:52;;;;;;;7.73;6.53;;;;;;;;;;5088170;28;20214;-51
2023/02/17 03:31:18;;;;;;;7.50;6.73;;;;;;;;;;5088601;28;20188;-50
2023/02/17 03:33:44;;;;;;;8.23;7.43;;;;;;;;;;5090931;28;20184;-51
2023/02/17 03:36:10;;;;;;;8.97;7.10;;;;;;;;;;5083881;28;20532;-51
2023/02/17 03:38:36;;;;;;;8.60;6.87;;;;;;;;;;5076772;28;20582;-50
2023/02/17 03:41:03;;;;;;;8.03;6.90;;;;;;;;;;5074143;28;20632;-50
2023/02/17 03:43:29;;;;;;;8.33;7.53;;;;;;;;;;5090897;28;20188;-50
2023/02/17 03:45:55;;;;;;;8.70;7.07;;;;;;;;;;5082269;28;20814;-49
2023/02/17 03:48:21;;;;;;;7.33;6.63;;;;;;;;;;5085350;28;20180;-51
2023/02/17 03:50:47;;;;;;;9.87;7.50;;;;;;;;;;5086270;28;20272;-50
2023/02/17 03:53:13;;;;;;;7.40;6.70;;;;;;;;;;5082742;28;20241;-51
2023/02/17 03:55:39;;;;;;;8.30;7.10;;;;;;;;;;5075595;28;20196;-51
2023/02/17 03:58:05;;;;;;;7.23;6.53;;;;;;;;;;5091336;28;20196;-52
2023/02/17 04:00:31;;;;;;;7.40;6.70;;;;;;;;;;5090726;28;20191;-50
2023/02/17 04:02:57;;;;;;;9.43;7.20;;;;;;;;;;5083178;28;20188;-49
2023/02/17 04:05:23;;;;;;;8.63;7.70;;;;;;;;;;5091347;28;20183;-50
2023/02/17 04:07:50;;;;;;;8.33;7.53;;;;;;;;;;5088358;28;20675;-51
2023/02/17 04:10:16;;;;;;;8.03;6.90;;;;;;;;;;5078596;28;20200;-51
2023/02/17 04:12:42;;;;;;;7.10;6.50;;;;;;;;;;5085977;28;20206;-51
2023/02/17 04:15:08;;;;;;;7.37;6.40;;;;;;;;;;5074551;28;20534;-50
2023/02/17 04:17:37;;;;;;;7.80;6.90;;;;;;;;;;5088165;28;20232;-50
2023/02/17 04:20:04;;;;;;;7.33;6.53;;;;;;;;;;5084987;28;20183;-50
2023/02/17 04:22:30;;;;;;;8.00;7.10;;;;;;;;;;5081666;28;20282;-53
2023/02/17 04:24:56;;;;;;;7.37;6.57;;;;;;;;;;5079341;28;20660;-52
2023/02/17 04:27:22;;;;;;;8.20;7.30;;;;;;;;;;5091042;28;20183;-52
2023/02/17 04:29:48;;;;;;;7.73;7.03;;;;;;;;;;5089172;28;20212;-52
2023/02/17 04:32:14;;;;;;;9.33;8.50;;;;;;;;;;5077784;28;20527;-50
2023/02/17 04:34:40;;;;;;;7.33;6.63;;;;;;;;;;5081139;28;20181;-51
2023/02/17 04:37:06;;;;;;;7.60;6.83;;;;;;;;;;5078463;28;20193;-50
2023/02/17 04:39:32;;;;;;;7.33;6.60;;;;;;;;;;5077585;28;20179;-50
2023/02/17 04:41:58;;;;;;;8.50;7.63;;;;;;;;;;5078144;28;20669;-49
2023/02/17 04:44:24;;;;;;;8.17;7.37;;;;;;;;;;5073760;28;20184;-51
2023/02/17 04:46:50;;;;;;;7.27;6.57;;;;;;;;;;5089310;28;20190;-50
2023/02/17 04:49:16;;;;;;;6.97;6.37;;;;;;;;;;5082195;28;20212;-51
2023/02/17 04:51:42;;;;;;;7.43;6.83;;;;;;;;;;5089372;28;20188;-50
2023/02/17 04:54:08;;;;;;;8.00;7.07;;;;;;;;;;5084978;28;20650;-51
2023/02/17 04:56:35;;;;;;;7.43;6.73;;;;;;;;;;5081002;28;20208;-51
2023/02/17 04:59:01;;;;;;;7.53;6.87;;;;;;;;;;5087955;28;20196;-51
2023/02/17 05:01:27;;;;;;;7.30;6.60;;;;;;;;;;5076827;28;20199;-51
2023/02/17 05:03:53;;;;;;;7.40;6.70;;;;;;;;;;5075831;28;20187;-50
2023/02/17 05:06:19;;;;;;;8.33;7.53;;;;;;;;;;5079402;28;20669;-50
2023/02/17 05:08:47;;;;;;;7.50;6.70;;;;;;;;;;5084036;28;20207;-51
2023/02/17 05:11:13;;;;;;;6.80;6.10;;;;;;;;;;5071844;28;20176;-51
2023/02/17 05:13:39;;;;;;;6.43;5.83;;;;;;;;;;5082175;28;20208;-50
2023/02/17 05:16:05;;;;;;;6.93;6.33;;;;;;;;;;5077388;28;20223;-49
2023/02/17 05:18:31;;;;;;;6.50;5.90;;;;;;;;;;5086777;28;20733;-51
2023/02/17 05:20:57;;;;;;;7.70;6.90;;;;;;;;;;5078681;28;20651;-50
2023/02/17 05:23:23;;;;;;;7.20;6.33;;;;;;;;;;5085894;28;20183;-52
2023/02/17 05:25:50;;;;;;;6.50;5.90;;;;;;;;;;5079071;28;20180;-51
2023/02/17 05:28:16;;;;;;;8.27;6.83;;;;;;;;;;5087545;28;20179;-50
2023/02/17 05:30:42;;;;;;;7.07;6.37;;;;;;;;;;5086720;28;20631;-50
2023/02/17 05:33:08;;;;;;;7.53;6.83;;;;;;;;;;5087889;28;20188;-50
2023/02/17 05:35:37;;;;;;;8.77;7.17;;;;;;;;;;5086192;28;20179;-51
2023/02/17 05:38:03;;;;;;;7.00;6.30;;;;;;;;;;5074912;28;20181;-50
2023/02/17 05:40:29;;;;;;;7.33;6.63;;;;;;;;;;5082487;28;20202;-50
2023/02/17 05:42:55;;;;;;;7.17;6.47;;;;;;;;;;5086149;28;20188;-50
2023/02/17 05:45:21;;;;;;;7.20;6.50;;;;;;;;;;5084302;28;20188;-49
2023/02/17 05:47:47;;;;;;;7.73;6.60;;;;;;;;;;5080553;28;20195;-50
2023/02/17 05:50:13;;;;;;;9.20;6.73;;;;;;;;;;5085451;28;20203;-50
2023/02/17 05:52:39;;;;;;;7.77;7.07;;;;;;;;;;5083224;28;20180;-49
2023/02/17 05:55:06;;;;;;;7.83;6.47;;;;;;;;;;5083985;28;20172;-49
2023/02/17 05:57:32;;;;;;;7.33;6.63;;;;;;;;;;5073373;28;20188;-50
2023/02/17 05:59:58;;;;;;;7.20;6.50;;;;;;;;;;5082201;28;20258;-49
2023/02/17 06:02:24;;;;;;;7.00;6.30;;;;;;;;;;5089381;28;20192;-50
2023/02/17 06:04:50;;;;;;;7.13;6.30;;;;;;;;;;5087609;28;22031;-50
2023/02/17 06:07:16;;;;;;;6.90;6.20;;;;;;;;;;5081032;28;20198;-49
2023/02/17 06:09:42;;;;;;;7.37;6.67;;;;;;;;;;5072561;28;20490;-49
2023/02/17 06:12:08;;;;;;;6.20;5.40;;;;;;;;;;5079914;28;20186;-49
2023/02/17 06:14:34;;;;;;;6.63;6.03;;;;;;;;;;5087925;28;20179;-50
2023/02/17 06:17:02;;;;;;;7.13;6.43;;;;;;;;;;5084029;28;20625;-48
2023/02/17 06:19:28;;;;;;;7.53;6.80;;;;;;;;;;5086785;28;20184;-49
2023/02/17 06:21:55;;;;;;;8.27;7.47;;;;;;;;;;5075400;28;20186;-50
2023/02/17 06:24:22;;;;;;;7.73;7.03;;;;;;;;;;5089119;28;20215;-48
2023/02/17 06:26:48;;;;;;;8.30;7.50;;;;;;;;;;5085252;28;20654;-51
2023/02/17 06:29:14;;;;;;;7.07;6.37;;;;;;;;;;5082277;28;20257;-50
2023/02/17 06:31:40;;;;;;;8.57;7.07;;;;;;;;;;5083676;28;20642;-50
2023/02/17 06:34:06;;;;;;;7.93;7.13;;;;;;;;;;5082583;28;20182;-50
2023/02/17 06:36:32;;;;;;;7.70;6.90;;;;;;;;;;5078372;28;20192;-50
2023/02/17 06:38:58;;;;;;;7.83;6.70;;;;;;;;;;5084255;28;20237;-49
2023/02/17 06:41:24;;;;;;;10.20;7.27;;;;;;;;;;5088688;28;20270;-49
2023/02/17 06:43:50;;;;;;;8.67;7.77;;;;;;;;;;5072956;28;20180;-51
2023/02/17 06:46:16;;;;;;;7.70;6.90;;;;;;;;;;5082902;28;20198;-49
2023/02/17 06:48:42;;;;;;;8.20;7.40;;;;;;;;;;5083398;28;20208;-49
2023/02/17 06:51:08;;;;;;;7.40;6.60;;;;;;;;;;5080094;28;20192;-49
2023/02/17 06:53:34;;;;;;;7.53;6.83;;;;;;;;;;5069385;28;20184;-49
2023/02/17 06:56:00;;;;;;;6.30;5.70;;;;;;;;;;5079926;28;20645;-49
2023/02/17 06:58:26;;;;;;;7.60;6.90;;;;;;;;;;5079757;28;20171;-49
2023/02/17 07:00:52;;;;;;;7.37;6.67;;;;;;;;;;5087004;28;20191;-50
2023/02/17 07:03:18;;;;;;;6.73;6.03;;;;;;;;;;5084455;28;20546;-49
2023/02/17 07:05:45;;;;;;;7.10;6.50;;;;;;;;;;5086556;28;20658;-50
2023/02/17 07:08:11;;;;;;;7.30;6.43;;;;;;;;;;5078564;28;20290;-50
2023/02/17 07:10:37;;;;;;;7.50;6.77;;;;;;;;;;5079485;28;20589;-50
2023/02/17 07:13:03;;;;;;;7.53;6.60;;;;;;;;;;5072417;28;20176;-51
2023/02/17 07:15:29;;;;;;;8.10;7.30;;;;;;;;;;5076195;28;20230;-51
2023/02/17 07:17:55;;;;;;;7.50;6.60;;;;;;;;;;5085585;28;20587;-50
2023/02/17 07:20:21;;;;;;;6.80;6.20;;;;;;;;;;5079185;28;20184;-50
2023/02/17 07:22:47;;;;;;;7.10;6.50;;;;;;;;;;5085772;28;20199;-52
2023/02/17 07:25:13;;;;;;;8.67;7.13;;;;;;;;;;5073753;28;20180;-52
2023/02/17 07:27:39;;;;;;;7.67;6.97;;;;;;;;;;5070675;28;20623;-52
2023/02/17 07:30:06;;;;;;;8.30;6.70;;;;;;;;;;5081625;28;20250;-51
2023/02/17 07:32:32;;;;;;;7.43;6.73;;;;;;;;;;5082984;28;20527;-50
2023/02/17 07:34:58;;;;;;;6.53;5.93;;;;;;;;;;5085057;28;20187;-52
2023/02/17 07:37:24;;;;;;;7.20;6.50;;;;;;;;;;5078544;28;20168;-52
2023/02/17 07:39:51;;;;;;;8.90;6.07;;;;;;;;;;5083125;28;20202;-51
2023/02/17 07:42:17;;;;;;;7.33;6.63;;;;;;;;;;5070045;28;20191;-52
2023/02/17 07:44:43;;;;;;;7.37;6.67;;;;;;;;;;5082220;28;20722;-51
2023/02/17 07:47:09;;;;;;;7.33;6.63;;;;;;;;;;5085184;28;20710;-51
2023/02/17 07:49:35;;;;;;;7.90;7.10;;;;;;;;;;5082222;28;20207;-51
2023/02/17 07:52:01;;;;;;;8.20;7.27;;;;;;;;;;5083614;28;20757;-52
2023/02/17 07:54:27;;;;;;;10.53;7.43;;;;;;;;;;5080618;28;20179;-52
2023/02/17 07:56:56;;;;;;;7.83;7.13;;;;;;;;;;5084168;28;20206;-51
2023/02/17 07:59:22;;;;;;;7.33;6.67;;;;;;;;;;5083638;28;20191;-51
2023/02/17 08:01:48;;;;;;;6.73;6.13;;;;;;;;;;5080092;28;20535;-51
2023/02/17 08:04:15;;;;;;;7.87;7.17;;;;;;;;;;5088161;28;20227;-50
2023/02/17 08:06:41;;;;;;;8.97;6.93;;;;;;;;;;5088886;28;20184;-50
2023/02/17 08:14:38;;;;;;;7.87;6.20;;;;;;;;;;5087312;28;20589;-51
2023/02/17 08:17:05;;;;;;;7.93;6.03;;;;;;;;;;5082767;28;20235;-51
2023/02/17 08:19:31;;;;;;;6.93;6.30;;;;;;;;;;5085909;28;20184;-52
2023/02/17 08:21:57;;;;;;;6.93;6.20;;;;;;;;;;5075129;28;20184;-49
2023/02/17 08:24:24;;;;;;;6.73;6.13;;;;;;;;;;5083958;28;20185;-51
2023/02/17 08:26:50;;;;;;;7.97;6.10;;;;;;;;;;5080285;28;20196;-51
2023/02/17 08:29:17;;;;;;;6.33;5.73;;;;;;;;;;5079876;28;20207;-52
2023/02/17 08:31:43;;;;;;;7.33;6.60;;;;;;;;;;5089340;28;20644;-51
2023/02/17 08:34:10;;;;;;;8.43;6.80;;;;;;;;;;5075308;28;20233;-51
2023/02/17 08:36:37;;;;;;;6.33;5.73;;;;;;;;;;5079997;28;20185;-51
2023/02/17 08:39:04;;;;;;;6.67;6.07;;;;;;;;;;5086822;28;20321;-51
2023/02/17 08:41:32;;;;;;;6.83;6.17;;;;;;;;;;5087128;28;20188;-51
2023/02/17 08:43:59;;;;;;;7.30;6.60;;;;;;;;;;5081411;28;20192;-50
2023/02/17 08:46:26;;;;;;;7.17;6.10;;;;;;;;;;5096178;28;20191;-51
2023/02/17 08:48:52;;;;;;;7.60;5.87;;;;;;;;;;5086211;28;20207;-52
2023/02/17 08:51:25;;;;;;;6.40;5.73;;;;;;;;;;5090873;28;20179;-51
2023/02/17 08:53:53;;;;;;;5.50;5.00;;;;;;;;;;5081716;28;20172;-52
2023/02/17 08:56:19;;;;;;;6.67;5.73;;;;;;;;;;5078369;28;20565;-50
2023/02/17 08:58:45;;;;;;;6.63;5.93;;;;;;;;;;5081218;28;20676;-51
2023/02/17 09:01:11;;;;;;;6.23;5.63;;;;;;;;;;5084882;28;20210;-51
2023/02/17 09:03:38;;;;;;;6.13;5.50;;;;;;;;;;5088104;28;20611;-51
2023/02/17 09:06:05;;;;;;;5.77;5.17;;;;;;;;;;5086013;28;20184;-51
2023/02/17 09:08:31;;;;;;;6.00;5.40;;;;;;;;;;5089349;28;20191;-51
2023/02/17 09:10:57;;;;;;;6.63;5.47;;;;;;;;;;5091615;28;20183;-51
2023/02/17 09:13:23;;;;;;;5.97;5.37;;;;;;;;;;5090010;28;20184;-51
2023/02/17 09:15:52;;;;;;;5.97;5.37;;;;;;;;;;5094020;28;20241;-51
2023/02/17 09:18:18;;;;;;;5.87;5.27;;;;;;;;;;5088529;28;20203;-51
2023/02/17 09:20:44;;;;;;;6.97;5.60;;;;;;;;;;5091262;28;20191;-51
2023/02/17 09:23:10;;;;;;;6.80;6.03;;;;;;;;;;5082022;28;20194;-51
2023/02/17 09:25:36;;;;;;;6.67;5.23;;;;;;;;;;5086339;28;20198;-51
2023/02/17 09:28:02;;;;;;;5.80;5.20;;;;;;;;;;5087863;28;20717;-51
2023/02/17 09:30:29;;;;;;;5.83;5.27;;;;;;;;;;5086388;28;20203;-51
2023/02/17 09:32:56;;;;;;;5.93;5.33;;;;;;;;;;5088666;28;20191;-51
2023/02/17 09:35:22;;;;;;;6.50;5.23;;;;;;;;;;5089461;28;20180;-51
2023/02/17 09:37:48;;;;;;;6.30;5.13;;;;;;;;;;5078834;28;20192;-51
2023/02/17 09:40:18;;;;;;;5.70;5.20;;;;;;;;;;5084287;28;20179;-51
2023/02/17 09:42:45;;;;;;;6.17;5.30;;;;;;;;;;5086828;28;20187;-51
2023/02/17 09:45:15;;;;;;;5.37;4.87;;;;;;;;;;5085952;28;20667;-52
2023/02/17 09:47:47;;;;;;;6.77;5.40;;;;;;;;;;5086252;28;20188;-52
2023/02/17 09:50:15;;;;;;;7.87;6.13;;;;;;;;;;5062433;28;20212;-51
2023/02/17 09:52:52;;;;;;;6.03;5.43;;;;;;;;;;5066560;28;20188;-51
2023/02/17 09:55:28;;;;;;;6.73;5.53;;;;;;;;;;5071220;28;20200;-51
2023/02/17 09:57:54;;;;;;;6.70;5.60;;;;;;;;;;5093352;28;20181;-51
2023/02/17 10:00:29;;;;;;;6.00;4.90;;;;;;;;;;5084329;28;20176;-50
2023/02/17 10:03:08;;;;;;;5.80;5.30;;;;;;;;;;5084484;28;20183;-51
2023/02/17 10:05:43;;;;;;;6.43;5.67;;;;;;;;;;5084952;28;20196;-51
2023/02/17 10:08:29;;;;;;;6.37;5.20;;;;;;;;;;5071947;28;20194;-53
2023/02/17 10:11:04;;;;;;;9.00;7.70;;;;;;;;;;5079957;28;20436;-50
2023/02/17 10:13:31;;;;;;;7.80;6.77;;;;;;;;;;5086542;28;20198;-50
2023/02/17 10:15:59;;;;;;;7.60;6.70;;;;;;;;;;5082605;28;20219;-51
2023/02/17 10:18:36;;;;;;;6.93;6.23;;;;;;;;;;5079898;28;20271;-51
2023/02/17 10:21:06;;;;;;;6.63;6.00;;;;;;;;;;5084109;28;20176;-50
2023/02/17 10:23:32;;;;;;;7.13;5.63;;;;;;;;;;5081416;28;20176;-51
2023/02/17 10:25:58;;;;;;;6.47;5.87;;;;;;;;;;5090202;28;20623;-51
2023/02/17 10:28:27;;;;;;;6.80;6.07;;;;;;;;;;5088290;28;20179;-50
2023/02/17 10:31:00;;;;;;;9.03;6.20;;;;;;;;;;5083772;28;20180;-51
2023/02/17 10:33:35;;;;;;;8.90;6.57;;;;;;;;;;5082321;28;20256;-51
2023/02/17 10:36:20;;;;;;;8.83;6.30;;;;;;;;;;5081590;28;20175;-49
2023/02/17 10:38:50;;;;;;;6.10;5.40;;;;;;;;;;5080176;28;20186;-50
2023/02/17 10:41:19;;;;;;;7.37;5.47;;;;;;;;;;5084532;28;20522;-51
2023/02/17 10:43:45;;;;;;;7.27;5.60;;;;;;;;;;5077718;28;20192;-50
2023/02/17 10:46:12;;;;;;;7.63;5.77;;;;;;;;;;5080904;28;20191;-50
2023/02/17 10:48:40;;;;;;;8.23;5.20;;;;;;;;;;5082092;28;20190;-50
2023/02/17 10:51:07;;;;;;;8.43;6.10;;;;;;;;;;5080140;28;20184;-51
2023/02/17 10:53:37;;;;;;;6.63;4.93;;;;;;;;;;5076425;28;20192;-51
2023/02/17 10:56:13;;;;;;;8.87;4.80;;;;;;;;;;5076934;28;20195;-51
2023/02/17 10:58:45;;;;;;;6.47;5.00;;;;;;;;;;5070953;28;20169;-51
2023/02/17 11:01:11;;;;;;;7.43;5.77;;;;;;;;;;5078582;28;20643;-52
2023/02/17 11:03:39;;;;;;;6.63;5.93;;;;;;;;;;5080128;28;20222;-50
2023/02/17 11:06:14;;;;;;;7.63;6.43;;;;;;;;;;5083364;28;20176;-53
2023/02/17 11:08:44;;;;;;;7.73;6.93;;;;;;;;;;5069230;28;20214;-51
2023/02/17 11:11:21;;;;;;;7.33;6.50;;;;;;;;;;5077408;28;20172;-51
2023/02/17 11:14:05;;;;;;;7.60;6.43;;;;;;;;;;5087631;28;20190;-51
2023/02/17 11:16:36;;;;;;;7.50;6.13;;;;;;;;;;5078255;28;20215;-51
2023/02/17 11:19:03;;;;;;;8.07;5.80;;;;;;;;;;5077327;28;20177;-50
2023/02/17 11:21:31;;;;;;;6.97;5.50;;;;;;;;;;5082083;28;20249;-50
2023/02/17 11:23:59;;;;;;;7.93;5.33;;;;;;;;;;5088018;28;20245;-51
2023/02/17 11:26:27;;;;;;;5.93;4.67;;;;;;;;;;5083904;28;20184;-51
2023/02/17 11:28:53;;;;;;;7.97;5.20;;;;;;;;;;5091187;28;20212;-52
2023/02/17 11:31:24;;;;;;;5.33;4.83;;;;;;;;;;5091862;28;20282;-51
2023/02/17 11:33:50;;;;;;;5.10;4.57;;;;;;;;;;5091707;28;20690;-51
2023/02/17 11:36:23;;;;;;;7.37;5.50;;;;;;;;;;5090853;28;20274;-51
2023/02/17 11:38:49;;;;;;;6.13;5.30;;;;;;;;;;5074175;28;20188;-52
2023/02/17 11:41:16;;;;;;;5.60;4.53;;;;;;;;;;5093166;28;20187;-51
2023/02/17 11:44:02;;;;;;;5.57;4.77;;;;;;;;;;5079479;28;20195;-51
2023/02/17 11:46:34;;;;;;;9.40;5.90;;;;;;;;;;5100026;28;20271;-51
2023/02/17 11:49:19;;;;;;;12.00;6.30;;;;;;;;;;5084452;28;20214;-51
2023/02/17 11:51:54;;;;;;;10.37;6.20;;;;;;;;;;5093065;28;20176;-51
2023/02/17 11:54:28;;;;;;;9.20;6.40;;;;;;;;;;5088239;28;20567;-51
2023/02/17 11:57:14;;;;;;;7.40;5.93;;;;;;;;;;5090758;28;20200;-52
2023/02/17 11:59:43;;;;;;;8.20;5.57;;;;;;;;;;5069784;28;20207;-51
2023/02/17 12:02:12;;;;;;;7.27;5.17;;;;;;;;;;5084674;28;20196;-51
2023/02/17 12:04:44;;;;;;;8.57;6.63;;;;;;;;;;5075588;28;20210;-51
2023/02/17 12:07:11;;;;;;;7.20;5.20;;;;;;;;;;5082668;28;20184;-51
2023/02/17 12:09:37;;;;;;;7.83;5.70;;;;;;;;;;5074305;28;20203;-51
2023/02/17 12:12:16;;;;;;;6.87;5.07;;;;;;;;;;5092243;28;20650;-51
2023/02/17 12:14:57;;;;;;;8.03;5.77;;;;;;;;;;5079855;28;20257;-50
2023/02/17 12:17:23;;;;;;;9.17;6.33;;;;;;;;;;5097653;28;20219;-51
2023/02/17 12:20:06;;;;;;;8.30;6.17;;;;;;;;;;5088440;28;20619;-51
2023/02/17 12:22:47;;;;;;;6.40;5.07;;;;;;;;;;5090402;28;20195;-51
2023/02/17 12:25:29;;;;;;;6.90;5.50;;;;;;;;;;5088613;28;20517;-52
2023/02/17 12:28:12;;;;;;;6.83;5.93;;;;;;;;;;5085402;28;20232;-51
2023/02/17 12:30:56;;;;;;;9.60;5.83;;;;;;;;;;5087285;28;20215;-52
2023/02/17 12:33:41;;;;;;;7.27;5.57;;;;;;;;;;5072911;28;20164;-51
2023/02/17 12:36:09;;;;;;;7.70;5.50;;;;;;;;;;5085049;28;20190;-51
2023/02/17 12:38:39;;;;;;;6.47;5.17;;;;;;;;;;5082936;28;20203;-51
2023/02/17 12:41:07;;;;;;;5.70;4.70;;;;;;;;;;5081457;28;20242;-51
2023/02/17 12:43:40;;;;;;;6.63;4.93;;;;;;;;;;5087748;28;20227;-51
2023/02/17 12:46:09;;;;;;;7.70;4.63;;;;;;;;;;5088920;28;20287;-51
2023/02/17 12:48:38;;;;;;;7.23;4.63;;;;;;;;;;5081691;28;20188;-51
2023/02/17 12:51:09;;;;;;;5.53;4.27;;;;;;;;;;5084346;28;20164;-51
2023/02/17 12:53:41;;;;;;;4.17;3.73;;;;;;;;;;5091152;28;20625;-52
2023/02/17 12:56:22;;;;;;;5.10;4.10;;;;;;;;;;5087265;28;20207;-51
2023/02/17 12:58:49;;;;;;;7.33;4.30;;;;;;;;;;5080469;28;20535;-50
2023/02/17 13:01:18;;;;;;;4.87;4.47;;;;;;;;;;5090010;28;20191;-51
2023/02/17 13:03:45;;;;;;;8.53;3.50;;;;;;;;;;5075494;28;20773;-51
2023/02/17 13:06:11;;;;;;;3.77;3.30;;;;;;;;;;5086007;28;20187;-50
2023/02/17 13:08:46;;;;;;;4.10;3.20;;;;;;;;;;5075037;28;20270;-51
2023/02/17 13:11:13;;;;;;;3.97;3.23;;;;;;;;;;5083128;28;20179;-50
2023/02/17 13:13:40;;;;;;;6.20;3.77;;;;;;;;;;5080532;28;20539;-51
2023/02/17 13:16:13;;;;;;;4.27;3.57;;;;;;;;;;5091074;28;20251;-50
2023/02/17 13:18:40;;;;;;;4.03;3.63;;;;;;;;;;5085751;28;20186;-52
2023/02/17 13:21:35;;;;;;;4.70;3.40;;;;;;;;;;5079355;28;20211;-51
2023/02/17 13:24:03;;;;;;;3.53;3.23;;;;;;;;;;5057540;28;20535;-51
2023/02/17 13:26:33;;;;;;;3.23;2.83;;;;;;;;;;5079279;28;20181;-50
2023/02/17 13:29:11;;;;;;;4.60;3.27;;;;;;;;;;5083567;28;20208;-51
2023/02/17 13:31:45;;;;;;;3.20;2.80;;;;;;;;;;5074638;28;20187;-51
2023/02/17 13:34:11;;;;;;;4.13;3.10;;;;;;;;;;5085273;28;20570;-52
2023/02/17 13:36:37;;;;;;;3.97;2.87;;;;;;;;;;5077377;28;20184;-49
2023/02/17 13:39:26;;;;;;;2.80;2.60;;;;;;;;;;5075995;28;20184;-51
2023/02/17 13:41:53;;;;;;;3.90;2.70;;;;;;;;;;5078392;28;20183;-51
2023/02/17 13:44:26;;;;;;;3.90;2.73;;;;;;;;;;5078723;28;20184;-50
2023/02/17 13:46:52;;;;;;;3.10;2.63;;;;;;;;;;5077391;28;20192;-51
2023/02/17 13:49:31;;;;;;;2.97;2.67;;;;;;;;;;5078883;28;20655;-50
2023/02/17 13:52:06;;;;;;;3.00;2.70;;;;;;;;;;5080751;28;20349;-51
2023/02/17 13:54:32;;;;;;;3.00;2.80;;;;;;;;;;5076400;28;20171;-50
2023/02/17 13:56:58;;;;;;;2.80;2.60;;;;;;;;;;5074392;28;20200;-51
2023/02/17 13:59:26;;;;;;;2.63;2.43;;;;;;;;;;5079807;28;20188;-51
2023/02/17 14:01:53;;;;;;;3.30;3.00;;;;;;;;;;5085029;28;20173;-51
2023/02/17 14:04:24;;;;;;;3.07;2.60;;;;;;;;;;5078290;28;20181;-51
2023/02/17 14:06:51;;;;;;;3.17;2.87;;;;;;;;;;5083259;28;20184;-50
2023/02/17 14:09:25;;;;;;;3.60;2.97;;;;;;;;;;5080803;28;20200;-50
2023/02/17 14:11:51;;;;;;;4.67;3.07;;;;;;;;;;5078566;28;20405;-50
2023/02/17 14:14:18;;;;;;;3.73;3.17;;;;;;;;;;5078693;28;20188;-51
2023/02/17 14:16:44;;;;;;;5.13;2.43;;;;;;;;;;5078929;28;20249;-49
2023/02/17 14:19:12;;;;;;;3.00;2.50;;;;;;;;;;5083027;28;20183;-50
2023/02/17 14:21:40;;;;;;;3.17;2.83;;;;;;;;;;5080622;28;20223;-51
2023/02/17 14:24:07;;;;;;;2.80;2.60;;;;;;;;;;5076946;28;20551;-51
2023/02/17 14:26:44;;;;;;;3.03;2.33;;;;;;;;;;5076994;28;20280;-50
2023/02/17 14:29:12;;;;;;;4.33;2.27;;;;;;;;;;5081998;28;20768;-51
2023/02/17 14:31:46;;;;;;;4.03;2.27;;;;;;;;;;5084859;28;20230;-51
2023/02/17 14:34:26;;;;;;;2.33;2.17;;;;;;;;;;5082295;28;20180;-52
2023/02/17 14:36:52;;;;;;;2.53;2.33;;;;;;;;;;5081723;28;20184;-52
2023/02/17 14:39:18;;;;;;;2.40;1.90;;;;;;;;;;5075255;28;20217;-52
2023/02/17 14:41:44;;;;;;;2.57;2.37;;;;;;;;;;5071833;28;20215;-52
2023/02/17 14:44:10;;;;;;;2.50;2.30;;;;;;;;;;5079199;28;20211;-52
2023/02/17 14:46:37;;;;;;;4.87;2.30;;;;;;;;;;5080973;28;20273;-49
2023/02/17 14:49:03;;;;;;;3.07;2.43;;;;;;;;;;5078324;28;20195;-49
2023/02/17 14:51:34;;;;;;;2.30;2.10;;;;;;;;;;5090367;28;20719;-49
2023/02/17 14:54:03;;;;;;;3.13;2.50;;;;;;;;;;5080414;28;20209;-50
2023/02/17 14:56:31;;;;;;;2.60;2.40;;;;;;;;;;5091268;28;20251;-48
2023/02/17 14:58:57;;;;;;;2.70;2.50;;;;;;;;;;5078896;28;20209;-49